Time;durP1;ratioP1;P1;durP2;ratioP2;P2;SDS_P1;SDS_P2;PMS_P1;PMS_P2;Temp;Humidity;BMP_temperature;BMP_pressure;BME280_temperature;BME280_humidity;BME280_pressure;Samples;Min_cycle;Max_cycle;Signal;HPM_P1;HPM_P2
2022/08/04 00:01:21;;;;;;;14.77;4.03;;;;;;;22.61;98.05;101206.16;5056091;28;20080;-52
2022/08/04 00:04:16;;;;;;;15.38;3.97;;;;;;;22.59;97.18;101191.94;5056961;28;20032;-52
2022/08/04 00:07:15;;;;;;;18.48;3.92;;;;;;;22.56;96.55;101191.59;5035219;28;20037;-51
2022/08/04 00:09:51;;;;;;;14.48;3.90;;;;;;;22.46;96.16;101184.81;5058812;28;20039;-51
2022/08/04 00:12:18;;;;;;;14.88;4.50;;;;;;;22.49;95.92;101188.97;5060672;28;20364;-53
2022/08/04 00:14:50;;;;;;;11.43;4.70;;;;;;;22.48;96.24;101188.13;5060495;28;20020;-51
2022/08/04 00:17:22;;;;;;;14.50;5.50;;;;;;;22.54;95.13;101189.91;5074917;28;20088;-52
2022/08/04 00:19:52;;;;;;;18.20;4.93;;;;;;;22.55;94.83;101190.75;5056803;28;20030;-52
2022/08/04 00:22:21;;;;;;;19.67;5.15;;;;;;;22.57;94.94;101190.50;5037278;28;20030;-51
2022/08/04 00:24:47;;;;;;;10.18;4.35;;;;;;;22.61;93.70;101186.28;5066802;28;20457;-52
2022/08/04 00:27:12;;;;;;;24.08;5.25;;;;;;;22.56;92.27;101184.25;5069825;28;20029;-53
2022/08/04 00:29:38;;;;;;;15.57;4.45;;;;;;;22.61;92.77;101191.72;5054550;28;20112;-51
2022/08/04 00:32:06;;;;;;;11.23;4.45;;;;;;;22.62;93.22;101175.13;5071081;28;20051;-52
2022/08/04 00:34:32;;;;;;;13.48;4.40;;;;;;;22.69;91.78;101185.91;5062286;28;20109;-52
2022/08/04 00:36:58;;;;;;;12.38;4.32;;;;;;;22.61;90.66;101178.13;5069295;28;20145;-52
2022/08/04 00:39:24;;;;;;;10.10;4.07;;;;;;;22.71;91.26;101168.28;5055651;28;20681;-52
2022/08/04 00:42:28;;;;;;;16.42;4.40;;;;;;;22.71;90.07;101168.28;5070384;28;20401;-54
2022/08/04 00:45:01;;;;;;;12.13;4.40;;;;;;;22.73;89.41;101168.88;5076837;28;20024;-52
2022/08/04 00:47:27;;;;;;;16.88;5.00;;;;;;;22.67;90.52;101164.38;5080324;28;20161;-51
2022/08/04 00:50:16;;;;;;;14.35;4.50;;;;;;;22.73;88.82;101157.19;5071830;28;20058;-52
2022/08/04 00:53:03;;;;;;;14.48;4.32;;;;;;;22.72;88.41;101163.66;5059755;28;20253;-52
2022/08/04 00:56:02;;;;;;;9.85;4.15;;;;;;;22.70;88.51;101160.38;5061728;28;20021;-52
2022/08/04 00:59:01;;;;;;;17.38;4.72;;;;;;;22.69;87.82;101161.41;5078835;28;20393;-53
2022/08/04 01:01:55;;;;;;;16.40;4.70;;;;;;;22.71;87.36;101160.13;5062513;28;20045;-50
2022/08/04 01:04:37;;;;;;;13.05;4.70;;;;;;;22.59;87.70;101148.41;5059714;28;20064;-52
2022/08/04 01:07:24;;;;;;;14.25;5.20;;;;;;;22.63;88.24;101152.31;5060013;28;20410;-52
2022/08/04 01:09:55;;;;;;;14.30;4.57;;;;;;;22.64;87.46;101150.41;5058969;28;20498;-53
2022/08/04 01:12:43;;;;;;;8.80;4.05;;;;;;;22.58;87.69;101143.19;5039281;28;20072;-53
2022/08/04 01:15:15;;;;;;;11.25;4.53;;;;;;;22.59;88.37;101139.38;5054304;28;20185;-52
2022/08/04 01:18:05;;;;;;;16.50;4.88;;;;;;;22.57;86.78;101131.44;5080169;28;20024;-53
2022/08/04 01:20:47;;;;;;;18.77;5.18;;;;;;;22.53;87.79;101131.09;5071740;28;20379;-53
2022/08/04 01:23:42;;;;;;;12.65;4.28;;;;;;;22.50;86.75;101134.28;5079645;28;20050;-53
2022/08/04 01:26:32;;;;;;;10.10;4.70;;;;;;;22.49;87.83;101135.34;5071215;28;20119;-52
2022/08/04 01:29:11;;;;;;;16.15;4.75;;;;;;;22.47;87.53;101125.75;5074970;28;20542;-50
2022/08/04 01:31:58;;;;;;;12.15;4.55;;;;;;;22.51;87.84;101124.22;5054281;28;20552;-51
2022/08/04 01:34:28;;;;;;;12.23;4.68;;;;;;;22.49;87.42;101118.19;5044909;28;20046;-54
2022/08/04 01:37:29;;;;;;;16.02;4.85;;;;;;;22.46;86.92;101114.03;5067782;28;20482;-53
2022/08/04 01:40:06;;;;;;;14.50;4.70;;;;;;;22.46;87.31;101110.50;5071141;28;20036;-53
2022/08/04 01:42:33;;;;;;;20.75;5.20;;;;;;;22.40;87.77;101111.41;5059774;28;20024;-53
2022/08/04 01:45:03;;;;;;;12.77;5.00;;;;;;;22.38;87.53;101110.84;5072788;28;20045;-53
2022/08/04 01:47:29;;;;;;;13.90;4.87;;;;;;;22.35;88.72;101109.41;5078907;28;20023;-53
2022/08/04 01:50:04;;;;;;;13.73;4.78;;;;;;;22.30;87.69;101110.13;5079402;28;20392;-53
2022/08/04 01:52:30;;;;;;;10.65;4.82;;;;;;;22.26;86.74;101106.16;5079559;28;20166;-52
2022/08/04 01:54:56;;;;;;;19.95;4.63;;;;;;;22.26;86.87;101105.31;5062015;28;20111;-52
2022/08/04 01:57:23;;;;;;;18.17;4.93;;;;;;;22.25;87.29;101109.94;5058826;28;20527;-51
2022/08/04 01:59:50;;;;;;;14.55;4.88;;;;;;;22.24;87.48;101107.47;5056729;28;20099;-53
2022/08/04 02:02:16;;;;;;;17.45;4.93;;;;;;;22.24;87.09;101110.19;5059059;28;20490;-53
2022/08/04 02:04:42;;;;;;;11.73;4.53;;;;;;;22.23;88.15;101105.78;5072192;28;20066;-53
2022/08/04 02:07:18;;;;;;;10.55;4.57;;;;;;;22.22;87.34;101107.69;5042537;28;20021;-53
2022/08/04 02:09:50;;;;;;;13.98;4.63;;;;;;;22.16;87.02;101101.25;5050925;28;20149;-53
2022/08/04 02:12:23;;;;;;;17.23;5.03;;;;;;;22.13;86.91;101109.06;5073267;28;20036;-51
2022/08/04 02:15:19;;;;;;;13.93;4.55;;;;;;;22.16;86.59;101095.00;5045990;28;20107;-52
2022/08/04 02:17:56;;;;;;;14.88;5.00;;;;;;;22.10;86.99;101098.66;5078763;28;20028;-53
2022/08/04 02:20:30;;;;;;;18.13;4.95;;;;;;;22.06;86.79;101102.91;5074476;28;20028;-53
2022/08/04 02:23:00;;;;;;;11.02;4.60;;;;;;;22.06;87.07;101097.47;5057246;28;20027;-51
2022/08/04 02:25:27;;;;;;;;;;;;;;;22.15;85.56;101098.81;5058488;28;20082;-53
2022/08/04 02:28:12;;;;;;;17.23;4.82;;;;;;;22.07;86.62;101089.06;5058766;28;19940;-55
2022/08/04 02:31:06;;;;;;;18.15;4.60;;;;;;;22.08;86.26;101098.03;5055788;28;20302;-51
2022/08/04 02:33:43;;;;;;;15.00;4.85;;;;;;;22.09;87.55;101097.00;5030758;28;20414;-54
2022/08/04 02:36:25;;;;;;;12.80;4.32;;;;;;;21.91;88.02;101097.88;5066461;28;20269;-54
2022/08/04 02:38:58;;;;;;;13.15;4.72;;;;;;;21.77;89.67;101100.75;5064553;28;20031;-53
2022/08/04 02:41:26;;;;;;;15.68;4.97;;;;;;;21.58;91.16;101093.72;5073733;28;20097;-52
2022/08/04 02:43:57;;;;;;;16.02;4.97;;;;;;;21.50;91.84;101094.00;5075929;28;20027;-52
2022/08/04 02:46:22;;;;;;;;;;;;;;;21.57;87.93;101095.59;5066784;28;20429;-51
2022/08/04 02:48:50;;;;;;;15.52;5.60;;;;;;;21.37;92.37;101095.81;5075504;28;19907;-50
2022/08/04 02:51:18;;;;;;;11.82;5.10;;;;;;;21.27;93.46;101100.13;5077690;28;20421;-52
2022/08/04 02:53:45;;;;;;;19.35;5.50;;;;;;;21.22;94.04;101098.06;5077974;28;20533;-52
2022/08/04 02:56:15;;;;;;;12.35;4.93;;;;;;;21.15;94.42;101095.44;5044905;28;20383;-51
2022/08/04 02:58:41;;;;;;;17.08;5.35;;;;;;;21.00;95.86;101089.53;5044449;28;20024;-51
2022/08/04 03:01:06;;;;;;;16.92;5.38;;;;;;;20.82;97.73;101088.44;5076358;28;20044;-51
2022/08/04 03:04:08;;;;;;;20.73;5.50;;;;;;;20.74;97.48;101098.75;5077411;28;20540;-53
2022/08/04 03:06:53;;;;;;;14.63;5.20;;;;;;;20.75;98.12;101084.94;5071581;28;20211;-52
2022/08/04 03:09:55;;;;;;;19.95;5.50;;;;;;;20.79;98.03;101091.63;5056083;28;20545;-53
2022/08/04 03:12:54;;;;;;;14.25;5.68;;;;;;;20.78;99.93;101099.97;5060585;28;20032;-51
2022/08/04 03:15:47;;;;;;;15.93;5.35;;;;;;;20.63;99.83;101103.84;5073177;28;20024;-53
2022/08/04 03:18:25;;;;;;;15.73;5.80;;;;;;;20.40;100.00;101109.84;5069595;28;20315;-53
2022/08/04 03:21:11;;;;;;;13.90;5.35;;;;;;;20.33;100.00;101108.22;5069999;28;20024;-52
2022/08/04 03:23:56;;;;;;;16.17;6.10;;;;;;;20.31;100.00;101097.59;5072566;28;20493;-52
2022/08/04 03:26:44;;;;;;;23.55;6.28;;;;;;;20.38;100.00;101097.56;5076271;28;20054;-53
2022/08/04 03:29:54;;;;;;;21.40;6.43;;;;;;;20.41;100.00;101094.41;5034876;28;20057;-55
2022/08/04 03:32:47;;;;;;;24.15;5.90;;;;;;;20.39;100.00;101096.50;5026532;28;20060;-55
2022/08/04 03:35:30;;;;;;;18.60;6.38;;;;;;;20.38;100.00;101095.66;5036327;28;20083;-54
2022/08/04 03:38:28;;;;;;;24.58;6.50;;;;;;;20.40;100.00;101098.16;5037410;28;20674;-55
2022/08/04 03:41:05;;;;;;;23.70;6.18;;;;;;;20.42;100.00;101096.91;5041041;28;21134;-55
2022/08/04 03:43:30;;;;;;;18.65;6.00;;;;;;;20.41;100.00;101114.22;5062661;28;20021;-54
2022/08/04 03:46:17;;;;;;;16.20;5.93;;;;;;;20.31;100.00;101101.16;5072109;28;20077;-54
2022/08/04 03:49:25;;;;;;;23.63;6.10;;;;;;;20.23;100.00;101108.69;5076676;28;20054;-54
2022/08/04 03:55:10;;;;;;;20.95;5.95;;;;;;;20.29;100.00;101111.38;5056925;28;20079;-54
2022/08/04 03:57:41;;;;;;;16.58;5.55;;;;;;;20.25;100.00;101114.75;5072665;28;20035;-55
2022/08/04 04:00:16;;;;;;;23.48;6.47;;;;;;;20.32;100.00;101118.25;5074230;28;20028;-53
2022/08/04 04:03:19;;;;;;;16.88;6.35;;;;;;;20.36;100.00;101113.22;5075945;28;20067;-53
2022/08/04 04:05:59;;;;;;;20.40;5.65;;;;;;;20.38;100.00;101111.13;5061009;28;20020;-54
2022/08/04 04:08:46;;;;;;;27.27;6.10;;;;;;;20.42;100.00;101115.06;5056060;28;20035;-54
2022/08/04 04:11:41;;;;;;;16.00;6.05;;;;;;;20.47;100.00;101105.19;5059414;28;20281;-54
2022/08/04 04:14:19;;;;;;;12.85;5.90;;;;;;;20.46;100.00;101117.09;5033481;28;20060;-55
2022/08/04 04:17:02;;;;;;;14.48;6.20;;;;;;;20.39;100.00;101116.31;5055616;28;20644;-54
2022/08/04 04:19:51;;;;;;;16.88;5.95;;;;;;;20.42;100.00;101115.88;5055607;28;20063;-54
2022/08/04 04:22:44;;;;;;;18.38;6.25;;;;;;;20.47;100.00;101109.81;5065705;28;20095;-54
2022/08/04 04:25:35;;;;;;;24.60;6.53;;;;;;;20.52;100.00;101117.25;5041283;28;20036;-54
2022/08/04 04:28:27;;;;;;;15.57;5.97;;;;;;;20.53;100.00;101119.75;5076134;28;20429;-54
2022/08/04 04:31:21;;;;;;;13.20;5.95;;;;;;;20.60;100.00;101122.44;5050660;28;20118;-54
2022/08/04 04:34:23;;;;;;;14.95;6.13;;;;;;;20.66;100.00;101114.25;4998375;28;20466;-54
2022/08/04 04:37:03;;;;;;;15.43;6.57;;;;;;;20.73;100.00;101122.34;5035004;28;20514;-54
2022/08/04 04:39:47;;;;;;;14.10;6.32;;;;;;;20.80;100.00;101114.97;5036234;28;20110;-54
2022/08/04 04:42:51;;;;;;;19.20;6.40;;;;;;;20.88;100.00;101121.19;5045489;28;20031;-55
2022/08/04 04:45:22;;;;;;;18.00;6.13;;;;;;;20.94;100.00;101117.56;5064295;28;20036;-53
2022/08/04 04:48:15;;;;;;;17.05;5.90;;;;;;;20.98;100.00;101113.38;5070329;28;20024;-53
2022/08/04 04:50:57;;;;;;;12.05;6.13;;;;;;;21.05;100.00;101116.84;5025115;28;20089;-51
2022/08/04 04:53:46;;;;;;;13.77;6.40;;;;;;;21.15;100.00;101113.63;5056506;28;20036;-52
2022/08/04 04:56:21;;;;;;;16.52;6.03;;;;;;;21.18;100.00;101116.72;5048947;28;20607;-53
2022/08/04 04:58:48;;;;;;;21.25;6.60;;;;;;;21.29;100.00;101117.84;5054693;28;20039;-52
2022/08/04 05:01:38;;;;;;;19.13;6.85;;;;;;;21.30;100.00;101124.09;5063352;28;20066;-51
2022/08/04 05:04:31;;;;;;;29.10;7.30;;;;;;;21.28;100.00;101132.47;5054271;28;20043;-51
2022/08/04 05:07:10;;;;;;;20.58;6.95;;;;;;;21.22;100.00;101134.22;5051239;28;20232;-52
2022/08/04 05:09:52;;;;;;;20.50;6.53;;;;;;;21.24;100.00;101132.09;5055944;28;20460;-53
2022/08/04 05:12:29;;;;;;;19.00;6.90;;;;;;;21.30;100.00;101115.94;5035735;28;20056;-55
2022/08/04 05:14:58;;;;;;;14.55;6.28;;;;;;;21.42;100.00;101123.13;5033816;28;20036;-53
2022/08/04 05:17:37;;;;;;;19.85;6.78;;;;;;;21.45;100.00;101121.00;5054413;28;20033;-63
2022/08/04 05:20:13;;;;;;;17.10;6.43;;;;;;;21.56;100.00;101112.97;5060720;28;20024;-56
2022/08/04 05:22:52;;;;;;;15.88;6.85;;;;;;;21.69;100.00;101122.00;5055856;28;20024;-52
2022/08/04 05:25:25;;;;;;;19.75;7.28;;;;;;;21.75;100.00;101121.91;5037168;28;20028;-52
2022/08/04 05:28:14;;;;;;;22.02;6.43;;;;;;;21.89;100.00;101125.28;5062892;28;20378;-53
2022/08/04 05:30:48;;;;;;;14.68;6.57;;;;;;;21.95;100.00;101129.81;5057976;28;20483;-53
2022/08/04 05:33:24;;;;;;;12.48;6.40;;;;;;;21.98;100.00;101125.81;5059141;28;20017;-52
2022/08/04 05:35:54;;;;;;;15.57;6.50;;;;;;;22.06;100.00;101132.81;5057482;28;20086;-51
2022/08/04 05:38:25;;;;;;;17.35;6.50;;;;;;;22.08;100.00;101127.97;5056800;28;20048;-52
2022/08/04 05:40:51;;;;;;;16.70;6.70;;;;;;;22.17;100.00;101123.88;5050510;28;20098;-52
2022/08/04 05:43:18;;;;;;;14.75;6.57;;;;;;;22.26;100.00;101127.91;5058406;28;20124;-52
2022/08/04 05:45:47;;;;;;;11.98;6.50;;;;;;;22.33;100.00;101109.63;5058066;28;20307;-52
2022/08/04 05:48:13;;;;;;;14.75;6.30;;;;;;;22.46;100.00;101107.78;5070034;28;20616;-50
2022/08/04 05:50:38;;;;;;;20.08;7.32;;;;;;;22.49;100.00;101105.41;5070479;28;20028;-54
2022/08/04 05:53:04;;;;;;;15.30;6.40;;;;;;;22.60;100.00;101108.38;5078042;28;20453;-54
2022/08/04 05:55:31;;;;;;;18.80;7.28;;;;;;;22.67;100.00;101114.53;5076309;28;20486;-54
2022/08/04 05:57:59;;;;;;;17.52;7.03;;;;;;;22.72;100.00;101115.47;5057752;28;20054;-54
2022/08/04 06:00:26;;;;;;;15.02;6.97;;;;;;;22.75;100.00;101118.81;5057261;28;20448;-54
2022/08/04 06:02:53;;;;;;;17.20;6.78;;;;;;;22.81;100.00;101123.31;5075406;28;20023;-54
2022/08/04 06:05:19;;;;;;;16.02;6.97;;;;;;;22.81;99.70;101118.72;5078831;28;20478;-54
2022/08/04 06:07:47;;;;;;;15.80;7.25;;;;;;;22.83;98.41;101118.47;5077823;28;20289;-54
2022/08/04 06:10:13;;;;;;;12.10;7.30;;;;;;;22.80;97.25;101114.31;5077759;28;20398;-55
2022/08/04 06:12:57;;;;;;;18.85;7.57;;;;;;;22.85;96.50;101119.06;5077992;28;20044;-52
2022/08/04 06:15:26;;;;;;;21.52;7.68;;;;;;;22.84;98.39;101126.38;5077861;28;20327;-51
2022/08/04 06:17:55;;;;;;;18.98;7.30;;;;;;;22.82;98.12;101127.69;5078839;28;20031;-51
2022/08/04 06:20:24;;;;;;;21.02;7.72;;;;;;;22.77;100.00;101120.22;5060545;28;20457;-52
2022/08/04 06:22:53;;;;;;;22.95;7.55;;;;;;;22.69;100.00;101126.88;5072639;28;20471;-52
2022/08/04 06:25:24;;;;;;;17.70;7.57;;;;;;;22.65;100.00;101122.94;5059616;28;20406;-52
2022/08/04 06:27:51;;;;;;;21.58;7.60;;;;;;;22.67;100.00;101126.25;5069672;28;20029;-54
2022/08/04 06:30:18;;;;;;;16.17;7.03;;;;;;;22.77;100.00;101117.50;5057833;28;20104;-53
2022/08/04 06:32:54;;;;;;;20.35;7.50;;;;;;;22.79;100.00;101125.44;5077899;28;20047;-53
2022/08/04 06:35:20;;;;;;;13.77;7.28;;;;;;;22.83;100.00;101135.63;5061058;28;20040;-52
2022/08/04 06:37:46;;;;;;;14.93;7.45;;;;;;;22.85;100.00;101133.50;5077906;28;20281;-53
2022/08/04 06:40:14;;;;;;;17.25;7.30;;;;;;;22.93;100.00;101129.63;5076737;28;20056;-52
2022/08/04 06:42:40;;;;;;;17.58;7.82;;;;;;;23.02;100.00;101146.41;5070757;28;20265;-53
2022/08/04 06:45:07;;;;;;;18.25;7.82;;;;;;;23.10;100.00;101148.81;5056535;28;20012;-52
2022/08/04 06:47:34;;;;;;;20.80;8.35;;;;;;;23.32;100.00;101142.75;5058863;28;20059;-53
2022/08/04 06:50:00;;;;;;;18.17;7.97;;;;;;;23.46;97.68;101152.34;5058760;28;20510;-53
2022/08/04 06:52:26;;;;;;;18.60;8.70;;;;;;;23.49;97.01;101157.31;5064717;28;20022;-53
2022/08/04 06:54:52;;;;;;;19.20;8.60;;;;;;;23.51;96.19;101152.44;5069692;28;20103;-54
2022/08/04 06:57:21;;;;;;;17.23;7.25;;;;;;;23.60;96.66;101155.63;5078476;28;20367;-54
2022/08/04 06:59:50;;;;;;;20.20;8.15;;;;;;;23.67;96.51;101150.88;5075407;28;20020;-54
2022/08/04 07:02:19;;;;;;;30.58;8.88;;;;;;;23.76;96.46;101151.31;5046980;28;20033;-55
2022/08/04 07:04:46;;;;;;;17.55;8.23;;;;;;;23.83;98.42;101146.59;5059308;28;20028;-50
2022/08/04 07:07:12;;;;;;;19.30;8.70;;;;;;;24.02;94.76;101145.31;5066658;28;20145;-51
2022/08/04 07:09:38;;;;;;;22.20;8.23;;;;;;;24.16;92.56;101153.22;5077099;28;20081;-53
2022/08/04 07:12:05;;;;;;;22.38;8.98;;;;;;;24.26;91.73;101147.13;5077370;28;20605;-53
2022/08/04 07:14:34;;;;;;;20.20;8.32;;;;;;;24.36;91.29;101153.59;5074693;28;20083;-52
2022/08/04 07:17:03;;;;;;;26.15;9.20;;;;;;;24.47;91.02;101142.84;5057982;28;20032;-52
2022/08/04 07:19:30;;;;;;;18.77;8.20;;;;;;;24.53;90.71;101147.31;5056788;28;20494;-53
2022/08/04 07:21:55;;;;;;;25.90;8.82;;;;;;;24.68;89.59;101157.72;5068624;28;20021;-52
2022/08/04 07:24:28;;;;;;;18.33;8.38;;;;;;;24.70;87.78;101153.66;5056755;28;20115;-52
2022/08/04 07:26:54;;;;;;;26.90;8.27;;;;;;;24.77;86.45;101157.03;5057584;28;20040;-54
2022/08/04 07:29:21;;;;;;;29.30;8.20;;;;;;;24.78;84.96;101155.16;5053739;28;20536;-53
2022/08/04 07:31:48;;;;;;;27.10;7.90;;;;;;;24.79;87.95;101150.50;5059549;28;20027;-52
2022/08/04 07:34:13;;;;;;;25.02;7.55;;;;;;;24.90;84.96;101147.69;5059172;28;20550;-50
2022/08/04 07:36:39;;;;;;;22.17;7.00;;;;;;;25.15;82.96;101154.59;5060960;28;20114;-51
2022/08/04 07:39:04;;;;;;;20.67;6.65;;;;;;;25.18;82.40;101162.31;5061445;28;20517;-52
2022/08/04 07:41:30;;;;;;;22.50;7.28;;;;;;;25.36;83.18;101163.97;5056725;28;20056;-53
2022/08/04 07:43:55;;;;;;;15.90;6.75;;;;;;;25.50;77.35;101165.22;5052948;28;20024;-55
2022/08/04 07:46:21;;;;;;;19.85;7.10;;;;;;;25.62;76.72;101151.44;5056779;28;20375;-54
2022/08/04 07:48:47;;;;;;;17.55;5.78;;;;;;;25.73;77.11;101165.25;5056422;28;20031;-54
2022/08/04 07:51:12;;;;;;;15.02;5.90;;;;;;;25.88;77.51;101168.16;5065499;28;20016;-56
2022/08/04 07:53:39;;;;;;;14.25;5.32;;;;;;;26.08;77.51;101158.56;5074823;28;20031;-55
2022/08/04 07:56:05;;;;;;;12.98;6.20;;;;;;;26.08;73.25;101166.78;5059052;28;20200;-54
2022/08/04 07:58:30;;;;;;;18.30;5.40;;;;;;;26.18;75.11;101167.69;5064728;28;20388;-55
2022/08/04 08:00:56;;;;;;;11.30;4.65;;;;;;;26.25;73.49;101162.84;5068738;28;20145;-54
2022/08/04 08:03:22;;;;;;;11.05;4.05;;;;;;;26.25;75.25;101168.31;5075766;28;20024;-54
2022/08/04 08:05:48;;;;;;;9.23;4.10;;;;;;;26.38;74.14;101175.31;5060856;28;20021;-53
2022/08/04 08:08:14;;;;;;;12.98;4.35;;;;;;;26.45;72.06;101174.28;5055601;28;20537;-54
2022/08/04 08:10:45;;;;;;;18.00;5.53;;;;;;;26.70;76.06;101171.78;5065872;28;20032;-55
2022/08/04 08:13:10;;;;;;;20.13;4.97;;;;;;;26.77;71.23;101183.34;5058406;28;20020;-55
2022/08/04 08:15:37;;;;;;;18.67;4.05;;;;;;;26.85;69.56;101189.44;5059248;28;20063;-54
2022/08/04 08:18:02;;;;;;;9.82;3.75;;;;;;;26.96;68.78;101186.50;5056819;28;20020;-55
2022/08/04 08:20:30;;;;;;;10.50;3.65;;;;;;;27.03;67.43;101191.75;5055143;28;20085;-55
2022/08/04 08:22:55;;;;;;;11.88;3.45;;;;;;;26.97;66.21;101188.16;5055652;28;20441;-54
2022/08/04 08:25:20;;;;;;;14.30;3.30;;;;;;;26.98;67.35;101188.97;5055503;28;20230;-55
2022/08/04 08:27:46;;;;;;;11.75;3.47;;;;;;;27.02;67.63;101186.53;5055529;28;20024;-54
2022/08/04 08:30:11;;;;;;;11.30;3.20;;;;;;;27.09;65.37;101196.19;5054287;28;20131;-55
2022/08/04 08:32:36;;;;;;;9.32;2.83;;;;;;;27.24;67.21;101197.38;5055951;28;20033;-54
2022/08/04 08:35:02;;;;;;;15.98;2.53;;;;;;;27.09;63.03;101195.38;5056873;28;20446;-55
2022/08/04 08:37:43;;;;;;;9.60;2.10;;;;;;;27.06;62.16;101202.22;5068496;28;20028;-55
2022/08/04 08:40:34;;;;;;;6.95;1.98;;;;;;;27.35;65.27;101199.94;5075470;28;20398;-55
2022/08/04 08:43:26;;;;;;;;;;;;;;;27.70;64.31;101204.00;5050323;28;20764;-53
2022/08/04 08:45:57;;;;;;;9.13;2.35;;;;;;;27.90;61.82;101199.66;5038723;28;19909;-54
2022/08/04 08:48:28;;;;;;;14.73;2.75;;;;;;;27.91;62.98;101196.66;5056395;28;20074;-54
2022/08/04 08:51:08;;;;;;;11.50;3.08;;;;;;;27.79;65.23;101209.78;5064187;28;20046;-54
2022/08/04 08:53:58;;;;;;;17.83;3.00;;;;;;;27.88;64.34;101207.34;5074403;28;20679;-54
2022/08/04 08:56:35;;;;;;;12.07;2.03;;;;;;;27.98;61.94;101209.34;5065525;28;20124;-54
2022/08/04 08:59:11;;;;;;;17.95;3.22;;;;;;;27.83;61.49;101216.38;5054956;28;20074;-55
2022/08/04 09:01:49;;;;;;;16.88;2.33;;;;;;;28.07;60.44;101219.53;5037001;28;20550;-54
2022/08/04 09:04:49;;;;;;;10.40;2.25;;;;;;;28.11;59.39;101225.31;5057535;28;20391;-53
2022/08/04 09:07:45;;;;;;;9.95;2.10;;;;;;;28.23;58.31;101220.41;5056998;28;20024;-53
2022/08/04 09:10:24;;;;;;;13.57;1.98;;;;;;;28.36;57.65;101224.56;5059827;28;20071;-55
2022/08/04 09:13:08;;;;;;;12.40;1.95;;;;;;;28.45;55.85;101224.84;5059033;28;20386;-54
2022/08/04 09:15:58;;;;;;;12.20;1.83;;;;;;;28.60;57.94;101222.16;5058364;28;20031;-54
2022/08/04 09:18:23;;;;;;;;;;;;;;;28.78;56.56;101230.94;5067531;28;20525;-54
2022/08/04 09:20:58;;;;;;;14.47;2.03;;;;;;;28.58;58.63;101223.50;5061698;28;19913;-56
2022/08/04 09:24:14;;;;;;;10.93;2.20;;;;;;;28.80;58.92;101234.25;5069200;28;20051;-55
2022/08/04 09:26:48;;;;;;;16.65;2.10;;;;;;;28.52;55.18;101241.06;5042992;28;20359;-55
2022/08/04 09:29:39;;;;;;;9.07;1.88;;;;;;;28.45;56.62;101244.91;5056893;28;20354;-55
2022/08/04 09:32:31;;;;;;;10.00;2.10;;;;;;;28.38;57.26;101247.09;5061145;28;20128;-55
2022/08/04 09:35:11;;;;;;;11.13;2.10;;;;;;;28.10;58.03;101254.66;5075520;28;20028;-55
2022/08/04 09:38:07;;;;;;;13.68;1.83;;;;;;;28.07;57.71;101251.66;5079498;28;20363;-55
2022/08/04 09:40:48;;;;;;;10.63;1.92;;;;;;;27.94;56.97;101244.75;5079306;28;20020;-55
2022/08/04 09:43:48;;;;;;;11.75;1.95;;;;;;;27.93;59.03;101253.25;5079125;28;20411;-54
2022/08/04 09:46:25;;;;;;;11.87;2.20;;;;;;;27.85;58.52;101254.53;5061348;28;20021;-54
2022/08/04 09:49:16;;;;;;;8.35;1.85;;;;;;;27.75;59.74;101263.56;5058738;28;20046;-54
2022/08/04 09:51:57;;;;;;;12.63;2.10;;;;;;;27.52;61.15;101265.63;5060583;28;20044;-54
2022/08/04 09:54:41;;;;;;;10.68;2.10;;;;;;;27.27;61.17;101268.97;5038308;28;20033;-56
2022/08/04 09:57:21;;;;;;;18.17;2.22;;;;;;;26.97;64.07;101275.06;5045548;28;20032;-56
2022/08/04 10:00:03;;;;;;;10.25;2.13;;;;;;;26.81;65.59;101285.03;5065085;28;20059;-53
2022/08/04 10:02:34;;;;;;;8.15;1.83;;;;;;;26.64;63.51;101298.03;5061194;28;20057;-55
2022/08/04 10:05:04;;;;;;;9.35;1.83;;;;;;;26.38;65.02;101295.78;5061134;28;20036;-55
2022/08/04 10:07:47;;;;;;;11.95;1.80;;;;;;;26.29;67.49;101286.41;5055693;28;20097;-55
2022/08/04 10:10:21;;;;;;;16.65;2.08;;;;;;;26.11;70.19;101308.63;5058419;28;20035;-54
2022/08/04 10:13:05;;;;;;;9.15;2.17;;;;;;;25.85;73.00;101302.78;5058130;28;20331;-55
2022/08/04 10:16:23;;;;;;;7.72;1.90;;;;;;;25.61;77.85;101300.25;5055094;28;20442;-54
2022/08/04 10:19:06;;;;;;;11.75;2.20;;;;;;;25.20;83.48;101283.16;5028187;28;20127;-54
2022/08/04 10:21:44;;;;;;;14.13;3.00;;;;;;;24.92;87.45;101293.06;5037123;28;20471;-55
2022/08/04 10:24:29;;;;;;;9.60;2.60;;;;;;;24.78;87.85;101340.91;5076858;28;20028;-55
2022/08/04 10:27:01;;;;;;;13.13;3.05;;;;;;;24.62;88.84;101363.53;5068183;28;20024;-54
2022/08/04 10:29:40;;;;;;;14.20;2.75;;;;;;;24.50;89.59;101380.72;5055959;28;20021;-55
2022/08/04 10:32:13;;;;;;;19.95;3.42;;;;;;;24.32;93.96;101362.63;5058349;28;20119;-56
2022/08/04 10:35:05;;;;;;;11.48;2.92;;;;;;;24.20;100.00;101375.44;5060038;28;20117;-55
2022/08/04 10:37:41;;;;;;;14.60;2.80;;;;;;;24.05;100.00;101362.31;5054916;28;20381;-55
2022/08/04 10:43:29;;;;;;;10.07;2.78;;;;;;;24.04;99.68;101360.63;5038029;28;20101;-56
2022/08/04 10:46:04;;;;;;;9.77;3.10;;;;;;;23.98;100.00;101337.03;5024314;28;20035;-55
2022/08/04 10:48:55;;;;;;;11.25;3.00;;;;;;;24.13;100.00;101325.63;5039532;28;20043;-53
2022/08/04 10:51:32;;;;;;;13.70;3.13;;;;;;;24.25;100.00;101295.56;5037254;28;20115;-54
2022/08/04 10:54:44;;;;;;;9.20;3.08;;;;;;;24.50;100.00;101285.16;5062702;28;20399;-53
2022/08/04 10:57:37;;;;;;;11.52;3.30;;;;;;;24.70;100.00;101278.47;5005371;28;20379;-53
2022/08/04 11:00:08;;;;;;;9.70;3.33;;;;;;;24.73;100.00;101288.91;5050449;28;20048;-53
2022/08/04 11:02:53;;;;;;;7.65;3.15;;;;;;;24.79;100.00;101298.03;5055916;28;20067;-53
2022/08/04 11:05:36;;;;;;;8.10;3.00;;;;;;;24.67;100.00;101319.94;5057657;28;20086;-52
2022/08/04 11:08:05;;;;;;;5.85;2.90;;;;;;;24.45;100.00;101327.94;5057779;28;20487;-54
2022/08/04 11:10:36;;;;;;;9.75;3.03;;;;;;;24.39;100.00;101319.63;5077620;28;20150;-54
2022/08/04 11:13:09;;;;;;;15.57;2.97;;;;;;;24.24;100.00;101323.94;5076754;28;20123;-52
2022/08/04 11:15:43;;;;;;;8.02;2.88;;;;;;;24.17;100.00;101313.19;5075811;28;20154;-55
2022/08/04 11:18:14;;;;;;;6.57;2.92;;;;;;;24.29;100.00;101292.13;5077061;28;20020;-54
2022/08/04 11:20:51;;;;;;;12.27;2.90;;;;;;;24.53;100.00;101283.84;5060467;28;20024;-54
2022/08/04 11:23:22;;;;;;;6.28;2.90;;;;;;;24.45;100.00;101290.53;5057004;28;20073;-55
2022/08/04 11:25:50;;;;;;;;;;;;;;;24.67;96.71;101292.63;5057620;28;20387;-54
2022/08/04 11:28:38;;;;;;;8.15;3.00;;;;;;;24.76;97.96;101291.13;5055777;28;19912;-54
2022/08/04 11:31:05;;;;;;;8.80;3.13;;;;;;;24.76;95.51;101289.25;5055619;28;20032;-53
2022/08/04 11:33:57;;;;;;;12.00;2.92;;;;;;;24.84;96.06;101282.53;5055506;28;20430;-54
2022/08/04 11:36:37;;;;;;;12.25;3.33;;;;;;;24.99;100.00;101287.44;5053567;28;20494;-54
2022/08/04 11:39:06;;;;;;;10.02;3.08;;;;;;;25.25;97.48;101296.06;5062719;28;20028;-53
2022/08/04 11:41:53;;;;;;;9.52;3.25;;;;;;;25.84;95.71;101288.25;5057877;28;20578;-54
2022/08/04 11:44:33;;;;;;;9.23;2.88;;;;;;;26.27;92.98;101280.31;5052053;28;20514;-54
2022/08/04 11:47:02;;;;;;;;;;;;;;;26.69;83.71;101287.13;5057121;28;20432;-54
2022/08/04 11:49:44;;;;;;;9.23;2.70;;;;;;;26.78;81.75;101297.38;5053823;28;20428;-54
2022/08/04 11:52:12;;;;;;;10.32;2.55;;;;;;;26.95;80.62;101299.16;5052678;28;20266;-53
2022/08/04 11:54:39;;;;;;;6.47;2.75;;;;;;;27.39;77.01;101306.41;5055544;28;20052;-55
2022/08/04 11:57:05;;;;;;;8.38;2.65;;;;;;;27.66;76.09;101298.09;5055407;28;20024;-54
2022/08/04 11:59:34;;;;;;;11.88;2.88;;;;;;;27.88;73.66;101301.50;5055087;28;20040;-55
2022/08/04 12:02:35;;;;;;;8.52;2.83;;;;;;;28.16;74.39;101296.72;5055411;28;20074;-54
2022/08/04 12:05:03;;;;;;;8.73;2.40;;;;;;;28.32;73.87;101305.84;5035111;28;20036;-55
2022/08/04 12:07:44;;;;;;;6.80;2.83;;;;;;;28.05;68.58;101300.53;5036338;28;20032;-54